createdAt,value
2022-08-19T00:02:50.305Z,304.23392
2022-08-19T00:07:52.284Z,261.52577
2022-08-19T00:12:53.909Z,258.28571
2022-08-19T00:17:55.556Z,292.0226
2022-08-19T00:22:57.190Z,300.06936
2022-08-19T00:27:58.767Z,288.13408
2022-08-19T00:33:00.388Z,329
2022-08-19T00:38:02.019Z,351.94702
2022-08-19T00:43:03.605Z,354.66667
2022-08-19T00:48:05.190Z,333.87342
2022-08-19T00:53:16.319Z,354.66667
2022-08-19T00:58:18.122Z,282.46154
2022-08-19T01:03:19.814Z,271.65957
2022-08-19T01:08:21.480Z,269.92593
2022-08-19T01:13:23.071Z,280.61202
2022-08-19T01:18:24.675Z,266.51309
2022-08-19T01:23:26.319Z,292.0226
2022-08-19T01:28:33.851Z,276.97297
2022-08-19T01:33:36.165Z,271.65957
2022-08-19T01:38:37.756Z,264.83333
2022-08-19T01:44:09.697Z,273.41176
2022-08-19T01:49:20.751Z,269.92593
2022-08-19T01:54:26.986Z,266.51309
2022-08-19T01:59:29.479Z,292.0226
2022-08-19T02:04:31.068Z,280.61202
2022-08-19T02:09:32.682Z,282.46154
2022-08-19T02:14:34.386Z,288.13408
2022-08-19T02:19:36.031Z,290.06742
2022-08-19T02:24:40.683Z,292.0226
2022-08-19T02:29:42.343Z,298.02299
2022-08-19T02:34:43.959Z,288.13408
2022-08-19T02:39:45.613Z,298.02299
2022-08-19T02:44:47.255Z,304.23392
2022-08-19T02:49:48.943Z,304.23392
2022-08-19T02:54:50.581Z,298.02299
2022-08-19T02:59:52.163Z,310.66667
2022-08-19T03:04:53.838Z,312.86228
2022-08-19T03:09:55.461Z,306.35294
2022-08-19T03:14:57.267Z,304.23392
2022-08-19T03:19:58.952Z,304.23392
2022-08-19T03:25:00.559Z,306.35294
2022-08-19T03:30:02.198Z,321.91411
2022-08-19T03:35:03.794Z,326.6087
2022-08-19T03:40:05.443Z,331.42138
2022-08-19T03:45:07.056Z,319.60976
2022-08-19T03:50:08.669Z,331.42138
2022-08-19T03:55:10.282Z,329
2022-08-19T04:00:13.597Z,329
2022-08-19T04:05:15.740Z,338.87179
2022-08-19T04:10:17.379Z,333.87342
2022-08-19T04:15:18.980Z,329
2022-08-19T04:20:21.065Z,321.91411
2022-08-19T04:25:22.670Z,331.42138
2022-08-19T04:30:24.265Z,351.94702
2022-08-19T04:35:25.857Z,346.61438
2022-08-19T04:40:27.524Z,336.35669
2022-08-19T04:45:29.121Z,326.6087
2022-08-19T04:50:41.496Z,329
2022-08-19T04:55:43.101Z,324.24691
2022-08-19T05:00:44.741Z,321.91411
2022-08-19T05:05:46.447Z,336.35669
2022-08-19T05:10:48.030Z,329
2022-08-19T05:15:49.633Z,326.6087
2022-08-19T05:20:51.247Z,324.24691
2022-08-19T05:25:52.915Z,333.87342
2022-08-19T05:30:54.537Z,319.60976
2022-08-19T05:35:56.122Z,329
2022-08-19T05:40:57.711Z,326.6087
2022-08-19T05:45:59.335Z,324.24691
2022-08-19T05:51:00.971Z,319.60976
2022-08-19T05:56:02.559Z,324.24691
2022-08-19T06:01:04.171Z,324.24691
2022-08-19T06:06:05.789Z,329
2022-08-19T06:11:07.368Z,331.42138
2022-08-19T06:16:08.961Z,321.91411
2022-08-19T06:21:10.587Z,321.91411
2022-08-19T06:26:12.162Z,319.60976
2022-08-19T06:31:13.763Z,317.33333
2022-08-19T06:36:15.374Z,321.91411
2022-08-19T06:41:16.987Z,324.24691
2022-08-19T06:46:18.630Z,329
2022-08-19T06:51:20.455Z,329
2022-08-19T06:56:23.055Z,331.42138
2022-08-19T07:01:24.802Z,331.42138
2022-08-19T07:06:43.740Z,338.87179
2022-08-19T07:11:46.200Z,354.66667
2022-08-19T07:16:47.807Z,341.41935
2022-08-19T07:21:49.453Z,344
2022-08-19T07:26:52.232Z,326.6087
2022-08-19T07:31:53.836Z,333.87342
2022-08-19T07:36:55.941Z,338.87179
2022-08-19T07:41:57.569Z,336.35669
2022-08-19T07:46:59.190Z,336.35669
2022-08-19T07:52:00.878Z,333.87342
2022-08-19T07:57:02.485Z,336.35669
2022-08-19T08:02:04.109Z,336.35669
2022-08-19T08:07:05.770Z,346.61438
2022-08-19T08:12:33.141Z,349.26316
2022-08-19T08:17:49.386Z,351.94702
2022-08-19T08:22:53.401Z,354.66667
2022-08-19T08:27:55.679Z,354.66667
2022-08-19T08:32:57.470Z,357.42282
2022-08-19T08:38:00.032Z,363.04762
2022-08-19T08:48:03.260Z,357.42282
2022-08-19T08:53:04.886Z,363.04762
2022-08-19T08:58:06.485Z,368.82759
2022-08-19T09:03:08.296Z,374.76923
2022-08-19T09:08:11.998Z,368.82759
2022-08-19T09:13:13.787Z,349.26316
2022-08-19T09:18:19.481Z,360.21622
2022-08-19T09:23:26.623Z,365.91781
2022-08-19T09:28:29.127Z,349.26316
2022-08-19T09:33:34.159Z,360.21622
2022-08-19T09:38:35.931Z,368.82759
2022-08-19T09:43:47.820Z,368.82759
2022-08-19T09:48:49.800Z,365.91781
2022-08-19T09:53:51.577Z,368.82759
2022-08-19T09:58:54.519Z,371.77778
2022-08-19T10:03:56.137Z,363.04762
2022-08-19T10:08:57.741Z,371.77778
2022-08-19T10:14:00.611Z,365.91781
2022-08-19T10:19:03.628Z,351.94702
2022-08-19T10:24:09.357Z,357.42282
2022-08-19T10:29:11.356Z,368.82759
2022-08-19T10:34:27.116Z,371.77778
2022-08-19T10:39:30.691Z,363.04762
2022-08-19T10:44:32.841Z,351.94702
2022-08-19T10:49:34.504Z,357.42282
2022-08-19T10:54:36.122Z,357.42282
2022-08-19T10:59:37.987Z,351.94702
2022-08-19T11:04:39.639Z,349.26316
2022-08-19T11:09:41.270Z,354.66667
2022-08-19T11:14:42.889Z,360.21622
2022-08-19T11:19:44.501Z,354.66667
2022-08-19T11:24:46.105Z,363.04762
2022-08-19T11:29:47.687Z,365.91781
2022-08-19T11:34:49.307Z,360.21622
2022-08-19T11:39:53.587Z,368.82759
2022-08-19T11:44:55.780Z,396.94118
2022-08-19T11:49:57.396Z,400.2963
2022-08-19T11:54:59.006Z,393.63504
2022-08-19T12:00:00.626Z,393.63504
2022-08-19T12:05:02.283Z,400.2963
2022-08-19T12:10:04.031Z,400.2963
2022-08-19T12:15:05.911Z,393.63504
2022-08-19T12:20:07.497Z,387.16547
2022-08-19T12:25:09.236Z,380.87943
2022-08-19T12:30:10.872Z,374.76923
2022-08-19T12:35:12.459Z,384
2022-08-19T12:40:14.070Z,365.91781
2022-08-19T12:45:15.923Z,365.91781
2022-08-19T12:50:17.826Z,365.91781
2022-08-19T12:55:19.471Z,368.82759
2022-08-19T13:00:21.060Z,368.82759
2022-08-19T13:05:22.654Z,351.94702
2022-08-19T13:10:24.273Z,365.91781
2022-08-19T13:15:25.896Z,363.04762
2022-08-19T13:20:27.508Z,351.94702
2022-08-19T13:25:29.289Z,349.26316
2022-08-19T13:30:30.911Z,349.26316
2022-08-19T13:35:32.522Z,344
2022-08-19T13:40:34.150Z,357.42282
2022-08-19T13:45:35.820Z,357.42282
2022-08-19T13:50:37.421Z,338.87179
2022-08-19T13:55:39.109Z,331.42138
2022-08-19T14:00:40.792Z,333.87342
2022-08-19T14:05:42.424Z,346.61438
2022-08-19T14:10:44.086Z,351.94702
2022-08-19T14:15:45.702Z,380.87943
2022-08-19T14:20:47.444Z,380.87943
2022-08-19T14:25:49.102Z,384
2022-08-19T14:30:50.753Z,360.21622
2022-08-19T14:35:59.605Z,360.21622
2022-08-19T14:41:01.751Z,363.04762
2022-08-19T14:46:03.380Z,374.76923
2022-08-19T14:51:05.008Z,374.76923
2022-08-19T14:56:06.614Z,365.91781
2022-08-19T15:01:08.230Z,368.82759
2022-08-19T15:06:09.854Z,380.87943
2022-08-19T15:11:14.462Z,390.37681
2022-08-19T15:16:18.108Z,403.70149
2022-08-19T15:21:26.892Z,390.37681
2022-08-19T15:26:29.401Z,384
2022-08-19T15:31:31.004Z,374.76923
2022-08-19T15:36:32.691Z,363.04762
2022-08-19T15:41:34.282Z,354.66667
2022-08-19T15:46:38.727Z,354.66667
2022-08-19T15:51:40.333Z,341.41935
2022-08-19T15:56:41.942Z,351.94702
2022-08-19T16:01:47.021Z,363.04762
2022-08-19T16:06:48.731Z,354.66667
2022-08-19T16:11:56.517Z,357.42282
2022-08-19T16:16:58.951Z,360.21622
2022-08-19T16:22:00.567Z,354.66667
2022-08-19T16:27:02.372Z,354.66667
2022-08-19T16:32:03.989Z,357.42282
2022-08-19T16:37:05.685Z,357.42282
2022-08-19T16:42:07.466Z,357.42282
2022-08-19T16:47:09.285Z,357.42282
2022-08-19T16:52:10.876Z,351.94702
2022-08-19T16:57:12.607Z,346.61438
2022-08-19T17:02:14.272Z,357.42282
2022-08-19T17:07:15.878Z,363.04762
2022-08-19T17:12:17.458Z,360.21622
2022-08-19T17:17:19.811Z,371.77778
2022-08-19T17:22:21.562Z,377.80282
2022-08-19T17:27:23.137Z,377.80282
2022-08-19T17:32:25.349Z,380.87943
2022-08-19T17:37:27.099Z,380.87943
2022-08-19T17:42:28.719Z,368.82759
2022-08-19T17:47:30.335Z,344
2022-08-19T17:52:31.953Z,338.87179
2022-08-19T17:57:33.577Z,368.82759
2022-08-19T18:02:35.185Z,384
2022-08-19T18:07:36.802Z,393.63504
2022-08-19T18:12:38.419Z,387.16547
2022-08-19T18:17:40.147Z,393.63504
2022-08-19T18:22:41.712Z,396.94118
2022-08-19T18:27:43.326Z,407.15789
2022-08-19T18:32:44.952Z,407.15789
2022-08-19T18:37:46.559Z,393.63504
2022-08-19T18:42:48.145Z,390.37681
2022-08-19T18:47:49.760Z,396.94118
2022-08-19T18:52:51.358Z,410.66667
2022-08-19T18:57:52.950Z,414.22901
2022-08-19T19:02:55.813Z,387.16547
2022-08-19T19:07:57.390Z,377.80282
2022-08-19T19:12:58.901Z,384
2022-08-19T19:18:00.934Z,400.2963
2022-08-19T19:23:03.335Z,407.15789
2022-08-19T19:28:04.964Z,407.15789
2022-08-19T19:33:06.543Z,390.37681
2022-08-19T19:38:08.144Z,396.94118
2022-08-19T19:43:09.776Z,396.94118
2022-08-19T19:48:11.378Z,393.63504
2022-08-19T19:53:13.018Z,374.76923
2022-08-19T19:58:15.349Z,374.76923
2022-08-19T20:03:17.022Z,371.77778
2022-08-19T20:08:18.998Z,384
2022-08-19T20:13:20.790Z,365.91781
2022-08-19T20:18:22.412Z,357.42282
2022-08-19T20:23:24.028Z,354.66667
2022-08-19T20:28:25.858Z,374.76923
2022-08-19T20:33:27.484Z,374.76923
2022-08-19T20:38:29.071Z,365.91781
2022-08-19T20:43:30.674Z,357.42282
2022-08-19T20:48:32.288Z,357.42282
2022-08-19T20:53:33.954Z,349.26316
2022-08-19T20:58:35.604Z,354.66667
2022-08-19T21:03:42.484Z,312.86228
2022-08-19T21:08:45.271Z,336.35669
2022-08-19T21:13:50.857Z,374.76923
2022-08-19T21:18:52.464Z,371.77778
2022-08-19T21:23:54.098Z,363.04762
2022-08-19T21:28:55.700Z,360.21622
2022-08-19T21:33:57.332Z,354.66667
2022-08-19T21:38:58.989Z,351.94702
2022-08-19T21:44:00.593Z,363.04762
2022-08-19T21:49:02.148Z,351.94702
2022-08-19T21:54:03.754Z,338.87179
2022-08-19T21:59:05.352Z,344
2022-08-19T22:04:06.926Z,331.42138
2022-08-19T22:09:08.600Z,324.24691
2022-08-19T22:14:10.269Z,344
2022-08-19T22:19:12.030Z,351.94702
2022-08-19T22:24:13.644Z,333.87342
2022-08-19T22:29:15.755Z,351.94702
2022-08-19T22:34:18.864Z,363.04762
2022-08-19T22:39:20.508Z,365.91781
2022-08-19T22:44:22.180Z,324.24691
2022-08-19T22:49:23.807Z,374.76923
2022-08-19T22:54:25.564Z,351.94702
2022-08-19T22:59:27.209Z,351.94702
2022-08-19T23:04:28.884Z,317.33333
2022-08-19T23:09:30.657Z,351.94702
2022-08-19T23:14:32.326Z,329
2022-08-19T23:19:33.923Z,324.24691
2022-08-19T23:24:35.585Z,338.87179
2022-08-19T23:29:37.162Z,346.61438
2022-08-19T23:34:38.773Z,363.04762
2022-08-19T23:39:40.784Z,346.61438
2022-08-19T23:44:51.502Z,344
2022-08-19T23:49:54.232Z,377.80282
2022-08-19T23:54:55.849Z,363.04762
2022-08-19T23:59:57.472Z,360.21622
